createdAt,value
2018-12-24T00:01:59.489Z,97.30
2018-12-24T00:04:29.073Z,97.40
2018-12-24T00:07:00.108Z,97.60
2018-12-24T00:09:30.387Z,97.70
2018-12-24T00:12:06.798Z,97.80
2018-12-24T00:14:28.771Z,97.60
2018-12-24T00:16:57.173Z,97.60
2018-12-24T00:19:25.547Z,97.50
2018-12-24T00:21:53.963Z,97.50
2018-12-24T00:24:22.319Z,97.70
2018-12-24T00:26:51.016Z,97.20
2018-12-24T00:29:21.032Z,97.30
2018-12-24T00:31:49.427Z,97.30
2018-12-24T00:34:18.943Z,97.30
2018-12-24T00:36:48.435Z,97.20
2018-12-24T00:39:16.832Z,97.20
2018-12-24T00:41:45.202Z,97.20
2018-12-24T00:44:13.704Z,97.10
2018-12-24T00:46:42.080Z,97.10
2018-12-24T00:49:10.480Z,97.10
2018-12-24T00:51:38.928Z,96.90
2018-12-24T00:54:07.699Z,97.00
2018-12-24T00:56:36.099Z,97.00
2018-12-24T00:59:07.382Z,97.20
2018-12-24T01:01:35.757Z,97.40
2018-12-24T01:04:06.160Z,97.50
2018-12-24T01:06:34.612Z,97.50
2018-12-24T01:09:04.274Z,97.50
2018-12-24T01:11:32.812Z,97.50
2018-12-24T01:14:01.179Z,97.60
2018-12-24T01:16:29.711Z,97.70
2018-12-24T01:18:58.088Z,97.70
2018-12-24T01:21:26.485Z,97.80
2018-12-24T01:23:54.868Z,98.00
2018-12-24T01:26:23.354Z,98.00
2018-12-24T01:28:52.036Z,98.10
2018-12-24T01:31:20.418Z,98.30
2018-12-24T01:33:49.787Z,98.30
2018-12-24T01:36:18.324Z,98.60
2018-12-24T01:38:46.812Z,98.70
2018-12-24T01:41:15.218Z,99.00
2018-12-24T01:43:43.598Z,99.20
2018-12-24T01:46:11.992Z,99.30
2018-12-24T01:48:40.423Z,99.60
2018-12-24T01:51:08.823Z,99.90
2018-12-24T01:53:37.275Z,99.90
2018-12-24T01:56:05.663Z,99.90
2018-12-24T01:58:35.267Z,99.90
2018-12-24T02:01:03.688Z,99.90
2018-12-24T02:03:32.055Z,99.90
2018-12-24T02:06:00.434Z,99.90
2018-12-24T02:08:29.148Z,99.90
2018-12-24T02:10:57.515Z,99.90
2018-12-24T02:13:25.916Z,99.90
2018-12-24T02:15:54.288Z,99.90
2018-12-24T02:18:22.684Z,99.90
2018-12-24T02:20:51.163Z,99.90
2018-12-24T02:23:19.551Z,99.90
2018-12-24T02:25:47.915Z,99.90
2018-12-24T02:28:16.310Z,99.90
2018-12-24T02:30:44.992Z,99.90
2018-12-24T02:33:13.511Z,99.90
2018-12-24T02:35:42.231Z,99.90
2018-12-24T02:38:10.745Z,99.90
2018-12-24T02:40:39.121Z,99.90
2018-12-24T02:43:08.836Z,99.90
2018-12-24T02:45:37.218Z,99.90
2018-12-24T02:48:06.915Z,99.90
2018-12-24T02:50:35.288Z,99.90
2018-12-24T02:53:03.763Z,99.90
2018-12-24T02:55:32.166Z,99.90
2018-12-24T02:58:02.076Z,95.70
2018-12-24T03:00:30.489Z,95.90
2018-12-24T03:02:58.865Z,95.80
2018-12-24T03:05:27.244Z,97.40
2018-12-24T03:07:55.632Z,98.10
2018-12-24T03:10:24.102Z,98.50
2018-12-24T03:13:02.227Z,98.90
2018-12-24T03:15:22.960Z,99.00
2018-12-24T03:17:51.327Z,99.20
2018-12-24T03:20:19.765Z,98.60
2018-12-24T03:22:48.171Z,98.20
2018-12-24T03:25:16.802Z,97.90
2018-12-24T03:27:45.541Z,97.90
2018-12-24T03:30:15.529Z,98.00
2018-12-24T03:32:43.922Z,98.20
2018-12-24T03:35:12.297Z,98.20
2018-12-24T03:37:40.681Z,98.10
2018-12-24T03:40:09.051Z,98.40
2018-12-24T03:42:39.021Z,98.30
2018-12-24T03:45:07.387Z,98.40
2018-12-24T03:47:36.044Z,98.40
2018-12-24T03:50:04.586Z,98.30
2018-12-24T03:52:35.229Z,98.40
2018-12-24T03:55:03.852Z,98.00
2018-12-24T03:57:32.250Z,98.10
2018-12-24T04:00:00.634Z,97.80
2018-12-24T04:02:29.300Z,97.60
2018-12-24T04:04:59.304Z,98.20
2018-12-24T04:07:27.699Z,97.60
2018-12-24T04:09:56.067Z,97.10
2018-12-24T04:12:24.452Z,97.20
2018-12-24T04:14:52.820Z,96.70
2018-12-24T04:17:21.242Z,96.80
2018-12-24T04:19:51.616Z,96.80
2018-12-24T04:22:19.980Z,96.30
2018-12-24T04:24:48.686Z,96.20
2018-12-24T04:27:17.219Z,96.30
2018-12-24T04:29:45.601Z,96.30
2018-12-24T04:32:14.093Z,96.00
2018-12-24T04:34:42.573Z,95.90
2018-12-24T04:37:10.931Z,96.10
2018-12-24T04:39:39.324Z,96.80
2018-12-24T04:42:07.797Z,97.20
2018-12-24T04:44:36.173Z,96.90
2018-12-24T04:47:04.910Z,97.10
2018-12-24T04:49:33.291Z,97.30
2018-12-24T04:52:02.876Z,97.20
2018-12-24T04:54:32.903Z,97.40
2018-12-24T04:57:01.324Z,97.80
2018-12-24T04:59:29.738Z,97.80
2018-12-24T05:01:59.195Z,97.40
2018-12-24T05:04:27.590Z,97.90
2018-12-24T05:06:55.968Z,97.30
2018-12-24T05:09:24.351Z,97.30
2018-12-24T05:11:52.736Z,97.30
2018-12-24T05:14:21.498Z,97.70
2018-12-24T05:16:49.885Z,97.40
2018-12-24T05:19:18.268Z,97.50
2018-12-24T05:21:46.737Z,97.70
2018-12-24T05:24:15.494Z,97.40
2018-12-24T05:26:43.862Z,96.90
2018-12-24T05:29:14.205Z,96.80
2018-12-24T05:31:43.143Z,96.00
2018-12-24T05:34:11.501Z,96.50
2018-12-24T05:36:42.653Z,97.00
2018-12-24T05:39:11.147Z,97.20
2018-12-24T05:41:39.535Z,97.20
2018-12-24T05:44:07.903Z,97.00
2018-12-24T05:46:36.295Z,97.40
2018-12-24T05:49:04.665Z,97.20
2018-12-24T05:51:33.051Z,97.10
2018-12-24T05:54:01.432Z,99.40
2018-12-24T05:56:30.164Z,97.90
2018-12-24T05:58:58.534Z,97.70
2018-12-24T06:01:26.917Z,97.30
2018-12-24T06:03:55.288Z,97.10
2018-12-24T06:06:23.695Z,97.20
2018-12-24T06:08:53.193Z,97.40
2018-12-24T06:11:21.606Z,97.00
2018-12-24T06:13:57.785Z,97.10
2018-12-24T06:16:20.205Z,97.60
2018-12-24T06:18:48.679Z,97.90
2018-12-24T06:21:17.077Z,97.30
2018-12-24T06:23:45.504Z,97.10
2018-12-24T06:26:13.897Z,97.60
2018-12-24T06:28:42.261Z,97.50
2018-12-24T06:31:11.268Z,97.00
2018-12-24T06:33:39.908Z,96.60
2018-12-24T06:36:08.300Z,96.10
2018-12-24T06:38:36.669Z,96.30
2018-12-24T06:41:05.209Z,96.20
2018-12-24T06:43:33.615Z,96.30
2018-12-24T06:46:02.012Z,96.10
2018-12-24T06:48:30.505Z,96.30
2018-12-24T06:50:58.896Z,96.70
2018-12-24T06:53:27.269Z,96.50
2018-12-24T06:55:55.634Z,96.40
2018-12-24T06:58:25.657Z,96.30
2018-12-24T07:00:54.297Z,96.40
2018-12-24T07:03:23.815Z,96.40
2018-12-24T07:05:54.244Z,96.60
2018-12-24T07:08:22.636Z,96.50
2018-12-24T07:10:52.624Z,96.50
2018-12-24T07:13:21.096Z,96.60
2018-12-24T07:15:49.537Z,96.50
2018-12-24T07:18:17.948Z,96.40
2018-12-24T07:20:46.313Z,96.40
2018-12-24T07:23:14.699Z,96.30
2018-12-24T07:25:43.063Z,96.40
2018-12-24T07:28:11.555Z,96.30
2018-12-24T07:30:40.012Z,96.10
2018-12-24T07:33:08.514Z,96.20
2018-12-24T07:35:36.888Z,96.00
2018-12-24T07:38:05.257Z,96.10
2018-12-24T07:40:33.721Z,96.00
2018-12-24T07:43:02.083Z,95.60
2018-12-24T07:45:30.488Z,94.90
2018-12-24T07:48:00.292Z,95.50
2018-12-24T07:50:28.675Z,94.80
2018-12-24T07:52:57.044Z,94.70
2018-12-24T07:55:25.461Z,94.80
2018-12-24T07:57:53.825Z,94.70
2018-12-24T08:00:22.194Z,94.30
2018-12-24T08:02:50.603Z,94.40
2018-12-24T08:05:18.987Z,94.30
2018-12-24T08:07:47.455Z,95.00
2018-12-24T08:10:15.835Z,94.70
2018-12-24T08:12:44.228Z,95.30
2018-12-24T08:15:12.596Z,94.80
2018-12-24T08:17:42.256Z,94.40
2018-12-24T08:20:10.625Z,94.60
2018-12-24T08:22:39.031Z,94.80
2018-12-24T08:25:07.776Z,94.80
2018-12-24T08:27:36.651Z,94.70
2018-12-24T08:30:05.511Z,95.00
2018-12-24T08:32:33.880Z,94.90
2018-12-24T08:35:02.277Z,95.10
2018-12-24T08:37:30.716Z,95.00
2018-12-24T08:39:59.109Z,95.20
2018-12-24T08:42:27.467Z,95.00
2018-12-24T08:44:55.862Z,94.50
2018-12-24T08:47:24.264Z,94.70
2018-12-24T08:49:52.648Z,94.70
2018-12-24T08:52:21.115Z,94.40
2018-12-24T08:54:50.525Z,94.70
2018-12-24T08:57:18.901Z,94.00
2018-12-24T08:59:47.280Z,93.60
2018-12-24T09:02:15.668Z,93.70
2018-12-24T09:04:44.034Z,93.50
2018-12-24T09:07:13.951Z,93.50
2018-12-24T09:09:42.313Z,93.60
2018-12-24T09:12:10.737Z,93.60
2018-12-24T09:14:39.095Z,93.70
2018-12-24T09:17:07.459Z,94.10
2018-12-24T09:19:36.175Z,93.50
2018-12-24T09:22:04.536Z,93.80
2018-12-24T09:24:33.008Z,93.70
2018-12-24T09:27:01.383Z,93.30
2018-12-24T09:29:29.790Z,92.90
2018-12-24T09:31:58.168Z,93.40
2018-12-24T09:34:27.264Z,93.50
2018-12-24T09:36:56.643Z,93.70
2018-12-24T09:39:25.031Z,93.80
2018-12-24T09:41:54.480Z,93.90
2018-12-24T09:44:22.859Z,93.70
2018-12-24T09:46:51.238Z,93.40
2018-12-24T09:49:19.603Z,92.70
2018-12-24T09:51:49.182Z,92.70
2018-12-24T09:54:17.549Z,92.80
2018-12-24T09:56:45.984Z,92.20
2018-12-24T09:59:14.362Z,92.40
2018-12-24T10:01:42.756Z,92.40
2018-12-24T10:04:13.521Z,92.30
2018-12-24T10:06:42.616Z,92.50
2018-12-24T10:09:10.982Z,92.50
2018-12-24T10:11:39.371Z,92.00
2018-12-24T10:14:07.750Z,91.80
2018-12-24T10:16:36.134Z,91.50
2018-12-24T10:19:04.563Z,91.30
2018-12-24T10:21:33.923Z,91.10
2018-12-24T10:24:02.487Z,91.50
2018-12-24T10:26:32.341Z,91.30
2018-12-24T10:29:00.728Z,90.60
2018-12-24T10:31:29.107Z,90.30
2018-12-24T10:33:57.483Z,90.20
2018-12-24T10:36:25.854Z,89.80
2018-12-24T10:38:54.270Z,90.00
2018-12-24T10:41:22.724Z,89.60
2018-12-24T10:43:51.117Z,88.60
2018-12-24T10:46:19.485Z,88.30
2018-12-24T10:48:48.044Z,87.60
2018-12-24T10:51:16.401Z,87.20
2018-12-24T10:53:44.779Z,86.50
2018-12-24T10:56:13.190Z,87.00
2018-12-24T10:58:43.251Z,87.50
2018-12-24T11:01:11.863Z,86.70
2018-12-24T11:03:41.675Z,85.20
2018-12-24T11:06:10.079Z,84.00
2018-12-24T11:08:39.462Z,82.10
2018-12-24T11:11:07.996Z,81.10
2018-12-24T11:13:36.465Z,79.70
2018-12-24T11:16:04.982Z,80.40
2018-12-24T11:18:33.347Z,80.20
2018-12-24T11:21:01.831Z,79.30
2018-12-24T11:23:30.276Z,80.70
2018-12-24T11:25:59.024Z,80.60
2018-12-24T11:28:28.455Z,80.60
2018-12-24T11:30:56.845Z,82.50
2018-12-24T11:33:25.210Z,83.30
2018-12-24T11:35:53.589Z,83.20
2018-12-24T11:38:21.974Z,83.70
2018-12-24T11:40:50.476Z,85.10
2018-12-24T11:43:18.872Z,86.80
2018-12-24T11:45:47.400Z,87.90
2018-12-24T11:48:15.768Z,88.50
2018-12-24T11:50:44.398Z,88.10
2018-12-24T11:53:12.937Z,88.80
2018-12-24T11:55:41.282Z,88.70
2018-12-24T11:58:13.299Z,87.40
2018-12-24T12:00:39.695Z,87.90
2018-12-24T12:03:08.189Z,85.90
2018-12-24T12:05:36.569Z,85.80
2018-12-24T12:08:04.975Z,88.60
2018-12-24T12:10:33.332Z,88.90
2018-12-24T12:13:02.024Z,87.70
2018-12-24T12:15:30.432Z,85.00
2018-12-24T12:17:58.885Z,80.80
2018-12-24T12:20:27.335Z,74.50
2018-12-24T12:22:55.747Z,72.60
2018-12-24T12:25:24.514Z,75.00
2018-12-24T12:27:52.907Z,75.00
2018-12-24T12:30:21.415Z,77.30
2018-12-24T12:32:49.778Z,79.10
2018-12-24T12:35:18.143Z,80.70
2018-12-24T12:37:46.601Z,80.80
2018-12-24T12:40:14.991Z,83.00
2018-12-24T12:42:43.379Z,85.10
2018-12-24T12:45:11.744Z,87.10
2018-12-24T12:47:40.145Z,87.50
2018-12-24T12:50:08.568Z,88.80
2018-12-24T12:52:36.960Z,90.20
2018-12-24T12:55:05.987Z,90.30
2018-12-24T12:57:34.391Z,91.10
2018-12-24T13:00:02.843Z,91.90
2018-12-24T13:02:31.211Z,91.80
2018-12-24T13:05:00.907Z,91.90
2018-12-24T13:07:29.191Z,91.90
2018-12-24T13:09:57.756Z,91.70
2018-12-24T13:12:26.176Z,91.60
2018-12-24T13:14:56.497Z,91.20
2018-12-24T13:17:24.576Z,91.00
2018-12-24T13:19:53.564Z,91.50
2018-12-24T13:22:23.379Z,91.50
2018-12-24T13:24:51.759Z,91.40
2018-12-24T13:27:20.129Z,90.90
2018-12-24T13:29:48.662Z,91.00
2018-12-24T13:32:17.145Z,91.10
2018-12-24T13:34:46.016Z,91.10
2018-12-24T13:37:14.412Z,91.10
2018-12-24T13:39:42.826Z,91.20
2018-12-24T13:42:11.215Z,91.30
2018-12-24T13:44:39.620Z,91.70
2018-12-24T13:47:08.020Z,92.00
2018-12-24T13:49:36.392Z,92.30
2018-12-24T13:52:04.839Z,91.20
2018-12-24T13:54:33.384Z,91.40
2018-12-24T13:57:01.756Z,91.90
2018-12-24T13:59:31.557Z,92.10
2018-12-24T14:02:00.075Z,92.00
2018-12-24T14:04:28.459Z,92.60
2018-12-24T14:06:56.824Z,92.40
2018-12-24T14:09:25.213Z,92.80
2018-12-24T14:11:53.571Z,93.00
2018-12-24T14:14:21.965Z,93.10
2018-12-24T14:16:50.359Z,93.30
2018-12-24T14:19:18.764Z,92.80
2018-12-24T14:21:47.477Z,92.90
2018-12-24T14:24:15.889Z,93.70
2018-12-24T14:26:44.266Z,93.70
2018-12-24T14:29:12.633Z,93.00
2018-12-24T14:31:41.019Z,93.00
2018-12-24T14:34:11.029Z,92.70
2018-12-24T14:36:39.412Z,93.00
2018-12-24T14:39:07.894Z,93.10
2018-12-24T14:41:36.243Z,93.40
2018-12-24T14:44:04.679Z,93.80
2018-12-24T14:46:33.070Z,93.40
2018-12-24T14:49:01.454Z,94.10
2018-12-24T14:51:29.843Z,94.60
2018-12-24T14:53:58.230Z,94.40
2018-12-24T14:56:26.643Z,94.70
2018-12-24T14:58:55.038Z,94.30
2018-12-24T15:01:24.427Z,94.10
2018-12-24T15:03:52.825Z,94.20
2018-12-24T15:06:21.289Z,94.80
2018-12-24T15:08:49.684Z,95.00
2018-12-24T15:11:18.043Z,94.80
2018-12-24T15:13:46.740Z,94.70
2018-12-24T15:16:15.391Z,94.60
2018-12-24T15:18:43.801Z,94.30
2018-12-24T15:21:12.178Z,94.50
2018-12-24T15:23:40.606Z,94.30
2018-12-24T15:26:08.997Z,94.20
2018-12-24T15:28:37.367Z,94.40
2018-12-24T15:31:05.762Z,93.80
2018-12-24T15:33:34.128Z,94.30
2018-12-24T15:36:02.526Z,94.20
2018-12-24T15:38:30.891Z,94.10
2018-12-24T15:41:00.974Z,94.50
2018-12-24T15:43:29.393Z,94.10
2018-12-24T15:45:57.797Z,94.50
2018-12-24T15:48:26.168Z,94.30
2018-12-24T15:50:54.585Z,94.90
2018-12-24T15:53:22.979Z,94.30
2018-12-24T15:55:51.376Z,94.40
2018-12-24T15:58:19.743Z,94.20
2018-12-24T16:00:49.767Z,93.90
2018-12-24T16:03:18.175Z,93.20
2018-12-24T16:05:46.555Z,93.10
2018-12-24T16:08:14.923Z,93.10
2018-12-24T16:10:43.324Z,93.80
2018-12-24T16:13:11.693Z,94.60
2018-12-24T16:15:40.059Z,95.00
2018-12-24T16:18:08.740Z,94.90
2018-12-24T16:20:37.400Z,95.40
2018-12-24T16:23:05.795Z,95.40
2018-12-24T16:25:34.155Z,94.90
2018-12-24T16:28:03.859Z,94.90
2018-12-24T16:30:32.244Z,95.20
2018-12-24T16:33:02.287Z,95.70
2018-12-24T16:35:30.667Z,96.30
2018-12-24T16:37:59.118Z,96.80
2018-12-24T16:40:27.508Z,97.10
2018-12-24T16:42:55.901Z,96.30
2018-12-24T16:45:24.263Z,96.40
2018-12-24T16:47:52.659Z,96.10
2018-12-24T16:50:21.031Z,95.50
2018-12-24T16:52:49.692Z,95.70
2018-12-24T16:55:18.084Z,95.70
2018-12-24T16:57:47.320Z,96.10
2018-12-24T17:00:16.316Z,96.00
2018-12-24T17:02:46.675Z,96.00
2018-12-24T17:05:14.733Z,96.00
2018-12-24T17:07:43.449Z,95.80
2018-12-24T17:10:12.379Z,96.10
2018-12-24T17:12:40.826Z,95.90
2018-12-24T17:15:09.149Z,95.80
2018-12-24T17:17:37.544Z,95.60
2018-12-24T17:20:06.964Z,95.50
2018-12-24T17:22:35.415Z,95.40
2018-12-24T17:25:03.811Z,95.40
2018-12-24T17:27:32.269Z,95.70
2018-12-24T17:30:00.748Z,95.10
2018-12-24T17:32:29.107Z,95.10
2018-12-24T17:34:57.495Z,95.10
2018-12-24T17:37:25.859Z,95.10
2018-12-24T17:39:54.247Z,95.00
2018-12-24T17:42:22.625Z,94.80
2018-12-24T17:44:51.310Z,94.70
2018-12-24T17:47:19.678Z,94.90
2018-12-24T17:49:48.161Z,94.80
2018-12-24T17:52:16.568Z,94.90
2018-12-24T17:54:44.945Z,95.00
2018-12-24T17:57:13.340Z,95.00
2018-12-24T17:59:41.719Z,95.30
2018-12-24T18:02:10.120Z,94.70
2018-12-24T18:04:38.486Z,94.80
2018-12-24T18:07:06.867Z,95.00
2018-12-24T18:09:35.246Z,94.70
2018-12-24T18:12:03.636Z,94.80
2018-12-24T18:14:33.352Z,94.70
2018-12-24T18:17:01.744Z,94.70
2018-12-24T18:19:30.107Z,94.60
2018-12-24T18:21:58.504Z,94.60
2018-12-24T18:24:26.875Z,94.40
2018-12-24T18:26:55.268Z,94.60
2018-12-24T18:29:23.648Z,94.50
2018-12-24T18:31:52.064Z,94.60
2018-12-24T18:34:20.436Z,94.40
2018-12-24T18:36:48.825Z,94.50
2018-12-24T18:39:17.191Z,94.90
2018-12-24T18:41:45.592Z,95.10
2018-12-24T18:44:14.286Z,95.30
2018-12-24T18:46:42.673Z,95.10
2018-12-24T18:49:11.373Z,95.10
2018-12-24T18:51:39.796Z,95.20
2018-12-24T18:54:09.827Z,95.10
2018-12-24T18:56:38.225Z,95.10
2018-12-24T18:59:06.611Z,94.90
2018-12-24T19:01:35.004Z,95.00
2018-12-24T19:04:03.368Z,94.90
2018-12-24T19:06:31.760Z,94.60
2018-12-24T19:09:00.120Z,94.80
2018-12-24T19:11:30.249Z,94.60
2018-12-24T19:13:58.605Z,94.50
2018-12-24T19:16:26.971Z,94.90
2018-12-24T19:18:55.367Z,94.70
2018-12-24T19:21:23.750Z,94.90
2018-12-24T19:23:52.160Z,94.70
2018-12-24T19:26:20.525Z,94.50
2018-12-24T19:28:50.174Z,94.60
2018-12-24T19:31:18.564Z,94.20
2018-12-24T19:33:47.038Z,94.40
2018-12-24T19:36:16.900Z,94.30
2018-12-24T19:38:45.315Z,94.40
2018-12-24T19:41:13.760Z,94.30
2018-12-24T19:43:42.159Z,94.10
2018-12-24T19:46:10.534Z,94.40
2018-12-24T19:48:38.996Z,94.80
2018-12-24T19:51:07.379Z,94.70
2018-12-24T19:53:35.787Z,94.50
2018-12-24T19:56:04.236Z,94.40
2018-12-24T19:58:32.713Z,94.50
2018-12-24T20:01:01.086Z,94.50
2018-12-24T20:03:29.504Z,94.20
2018-12-24T20:05:57.968Z,94.30
2018-12-24T20:08:26.371Z,95.10
2018-12-24T20:10:54.748Z,94.50
2018-12-24T20:13:23.324Z,94.40
2018-12-24T20:15:51.993Z,94.30
2018-12-24T20:18:20.877Z,94.40
2018-12-24T20:20:49.288Z,94.40
2018-12-24T20:23:17.692Z,94.50
2018-12-24T20:25:46.204Z,94.50
2018-12-24T20:28:16.904Z,94.60
2018-12-24T20:30:45.280Z,94.60
2018-12-24T20:33:13.756Z,94.50
2018-12-24T20:35:42.241Z,94.40
2018-12-24T20:38:10.549Z,94.50
2018-12-24T20:40:38.999Z,94.70
2018-12-24T20:43:08.508Z,94.70
2018-12-24T20:45:36.944Z,94.80
2018-12-24T20:48:06.736Z,94.90
2018-12-24T20:50:35.448Z,95.10
2018-12-24T20:53:03.908Z,94.90
2018-12-24T20:55:34.825Z,95.40
2018-12-24T20:58:03.197Z,95.10
2018-12-24T21:00:31.704Z,94.90
2018-12-24T21:03:00.070Z,94.90
2018-12-24T21:05:28.453Z,95.10
2018-12-24T21:07:56.997Z,95.20
2018-12-24T21:10:25.375Z,95.00
2018-12-24T21:12:54.331Z,94.90
2018-12-24T21:15:22.845Z,94.80
2018-12-24T21:17:51.361Z,94.90
2018-12-24T21:20:19.762Z,94.60
2018-12-24T21:22:48.161Z,94.70
2018-12-24T21:25:16.790Z,94.80
2018-12-24T21:27:45.235Z,94.70
2018-12-24T21:30:13.637Z,94.60
2018-12-24T21:32:42.157Z,94.70
2018-12-24T21:35:11.049Z,94.80
2018-12-24T21:37:39.622Z,94.80
2018-12-24T21:40:08.368Z,95.10
2018-12-24T21:42:36.847Z,95.00
2018-12-24T21:45:05.632Z,94.90
2018-12-24T21:47:36.135Z,95.50
2018-12-24T21:50:05.069Z,95.70
2018-12-24T21:52:33.439Z,95.80
2018-12-24T21:55:01.840Z,95.90
2018-12-24T21:57:30.447Z,95.90
2018-12-24T21:59:58.844Z,95.80
2018-12-24T22:02:27.211Z,95.70
2018-12-24T22:04:55.713Z,95.70
2018-12-24T22:07:24.155Z,95.50
2018-12-24T22:09:52.632Z,95.50
2018-12-24T22:12:21.046Z,95.40
2018-12-24T22:14:49.415Z,95.40
2018-12-24T22:17:17.816Z,95.30
2018-12-24T22:19:46.237Z,95.30
2018-12-24T22:22:14.636Z,95.60
2018-12-24T22:24:43.117Z,95.40
2018-12-24T22:27:11.534Z,95.40
2018-12-24T22:29:39.930Z,95.10
2018-12-24T22:32:08.449Z,95.10
2018-12-24T22:34:37.197Z,94.90
2018-12-24T22:37:05.591Z,94.90
2018-12-24T22:39:33.967Z,94.90
2018-12-24T22:42:02.365Z,94.70
2018-12-24T22:44:30.736Z,94.80
2018-12-24T22:46:59.533Z,94.40
2018-12-24T22:49:27.907Z,94.00
2018-12-24T22:51:57.529Z,94.00
2018-12-24T22:54:25.912Z,93.90
2018-12-24T22:56:54.317Z,94.00
2018-12-24T22:59:22.703Z,93.90
2018-12-24T23:01:51.115Z,94.10
2018-12-24T23:04:19.520Z,94.30
2018-12-24T23:06:48.003Z,94.40
2018-12-24T23:09:16.388Z,94.70
2018-12-24T23:11:44.806Z,94.60
2018-12-24T23:14:13.215Z,94.70
2018-12-24T23:16:41.720Z,94.90
2018-12-24T23:19:10.203Z,94.90
2018-12-24T23:21:38.580Z,94.80
2018-12-24T23:24:07.074Z,95.00
2018-12-24T23:26:35.515Z,94.40
2018-12-24T23:29:03.910Z,94.50
2018-12-24T23:31:33.302Z,94.40
2018-12-24T23:34:01.708Z,94.30
2018-12-24T23:36:30.241Z,94.20
2018-12-24T23:38:58.647Z,94.20
2018-12-24T23:41:27.007Z,94.00
2018-12-24T23:43:55.399Z,93.70
2018-12-24T23:46:24.901Z,93.50
2018-12-24T23:48:57.694Z,93.20
2018-12-24T23:51:23.304Z,92.80
2018-12-24T23:53:51.696Z,92.70
2018-12-24T23:56:20.063Z,92.60
2018-12-24T23:58:48.794Z,92.50
